Time;durP1;ratioP1;P1;durP2;ratioP2;P2;SDS_P1;SDS_P2;PMS_P1;PMS_P2;Temp;Humidity;BMP_temperature;BMP_pressure;BME280_temperature;BME280_humidity;BME280_pressure;Samples;Min_cycle;Max_cycle;Signal;HPM_P1;HPM_P2
2023/07/24 00:01:01;;;;;;;;;;;25.20;44.90;;;;;;1529259;76;1159;-78
2023/07/24 00:03:03;;;;;;;;;;;25.20;44.90;;;;;;1533762;76;666;-78
2023/07/24 00:05:05;;;;;;;;;;;25.10;45.00;;;;;;1525145;76;616;-77
2023/07/24 00:07:08;;;;;;;;;;;25.10;45.10;;;;;;1532229;76;909;-79
2023/07/24 00:09:10;;;;;;;;;;;25.10;45.10;;;;;;1534615;76;1151;-78
2023/07/24 00:11:12;;;;;;;;;;;25.10;45.10;;;;;;1531675;76;734;-78
2023/07/24 00:13:14;;;;;;;;;;;25.10;45.00;;;;;;1516068;76;941;-79
2023/07/24 00:15:16;;;;;;;;;;;25.10;45.10;;;;;;1541617;76;1939;-79
2023/07/24 00:17:17;;;;;;;;;;;25.10;45.10;;;;;;1520378;76;716;-77
2023/07/24 00:19:19;;;;;;;;;;;25.10;45.10;;;;;;1536053;76;1132;-79
2023/07/24 00:21:21;;;;;;;;;;;25.10;45.20;;;;;;1537191;76;739;-78
2023/07/24 00:23:23;;;;;;;;;;;25.00;45.30;;;;;;1536976;76;748;-78
2023/07/24 00:25:25;;;;;;;;;;;25.10;45.30;;;;;;1537017;76;1543;-78
2023/07/24 00:27:27;;;;;;;;;;;25.00;45.30;;;;;;1521537;76;1133;-77
2023/07/24 00:29:29;;;;;;;;;;;25.10;45.40;;;;;;1525477;76;816;-78
2023/07/24 00:31:31;;;;;;;;;;;25.10;45.50;;;;;;1533897;75;846;-77
2023/07/24 00:33:33;;;;;;;;;;;25.10;45.50;;;;;;1541082;75;744;-78
2023/07/24 00:35:35;;;;;;;;;;;25.00;45.50;;;;;;1539232;75;1941;-78
2023/07/24 00:37:37;;;;;;;;;;;25.10;45.60;;;;;;1543545;75;1136;-77
2023/07/24 00:39:39;;;;;;;;;;;25.00;45.70;;;;;;1543509;75;789;-78
2023/07/24 00:41:41;;;;;;;;;;;25.00;45.70;;;;;;1541553;76;702;-77
2023/07/24 00:43:42;;;;;;;;;;;25.10;45.70;;;;;;1546917;75;726;-78
2023/07/24 00:45:44;;;;;;;;;;;25.00;45.80;;;;;;1547717;75;720;-77
2023/07/24 00:47:46;;;;;;;;;;;25.10;45.80;;;;;;1543412;75;1158;-76
2023/07/24 00:49:48;;;;;;;;;;;25.00;45.90;;;;;;1543771;75;755;-78
2023/07/24 00:51:50;;;;;;;;;;;25.00;46.00;;;;;;1544665;75;724;-77
2023/07/24 00:53:52;;;;;;;;;;;25.10;46.00;;;;;;1548632;75;1927;-76
2023/07/24 00:55:54;;;;;;;;;;;25.10;45.90;;;;;;1547564;75;783;-78
2023/07/24 00:57:56;;;;;;;;;;;25.10;45.90;;;;;;1542585;75;1114;-78
2023/07/24 00:59:58;;;;;;;;;;;25.10;45.90;;;;;;1531936;75;726;-77
2023/07/24 01:02:00;;;;;;;;;;;25.10;46.00;;;;;;1544005;75;809;-78
2023/07/24 01:04:02;;;;;;;;;;;25.00;46.00;;;;;;1548727;75;712;-78
2023/07/24 01:06:04;;;;;;;;;;;25.10;46.00;;;;;;1543879;75;726;-78
2023/07/24 01:08:06;;;;;;;;;;;25.10;46.10;;;;;;1538158;75;1218;-78
2023/07/24 01:10:08;;;;;;;;;;;25.10;46.10;;;;;;1540980;75;730;-78
2023/07/24 01:12:12;;;;;;;;;;;25.10;46.00;;;;;;1540804;77;742;-78
2023/07/24 01:14:15;;;;;;;;;;;25.10;46.00;;;;;;1547495;75;1910;-77
2023/07/24 01:16:19;;;;;;;;;;;25.10;46.00;;;;;;1538511;75;727;-78
2023/07/24 01:18:21;;;;;;;;;;;25.10;46.00;;;;;;1542747;75;1161;-78
2023/07/24 01:20:22;;;;;;;;;;;25.10;46.10;;;;;;1535583;75;684;-78
2023/07/24 01:22:32;;;;;;;;;;;25.00;46.20;;;;;;1543576;75;1342;-79
2023/07/24 01:24:35;;;;;;;;;;;25.10;46.20;;;;;;1543478;75;718;-79
2023/07/24 01:26:37;;;;;;;;;;;25.10;46.20;;;;;;1545520;75;766;-78
2023/07/24 01:28:39;;;;;;;;;;;25.10;46.20;;;;;;1535719;75;1158;-78
2023/07/24 01:30:41;;;;;;;;;;;25.10;46.20;;;;;;1543647;75;685;-79
2023/07/24 01:32:43;;;;;;;;;;;25.10;46.20;;;;;;1548775;75;724;-79
2023/07/24 01:34:45;;;;;;;;;;;25.10;46.20;;;;;;1543231;75;1924;-80
2023/07/24 01:36:47;;;;;;;;;;;25.10;46.10;;;;;;1538422;75;642;-78
2023/07/24 01:38:49;;;;;;;;;;;25.10;46.10;;;;;;1553216;75;1174;-80
2023/07/24 01:40:50;;;;;;;;;;;25.10;46.00;;;;;;1532017;75;678;-79
2023/07/24 01:42:52;;;;;;;;;;;25.10;46.00;;;;;;1542604;75;794;-80
2023/07/24 01:44:54;;;;;;;;;;;25.10;46.00;;;;;;1533343;75;752;-79
2023/07/24 01:46:56;;;;;;;;;;;25.10;46.10;;;;;;1549341;75;860;-76
2023/07/24 01:48:58;;;;;;;;;;;25.10;46.00;;;;;;1551884;75;1141;-79
2023/07/24 01:51:00;;;;;;;;;;;25.10;46.00;;;;;;1550172;75;805;-79
2023/07/24 01:53:02;;;;;;;;;;;25.10;46.00;;;;;;1534737;75;713;-80
2023/07/24 01:55:04;;;;;;;;;;;25.10;46.00;;;;;;1543229;75;1929;-79
2023/07/24 01:57:06;;;;;;;;;;;25.10;46.00;;;;;;1548810;75;733;-80
2023/07/24 01:59:08;;;;;;;;;;;25.10;46.00;;;;;;1550641;75;1064;-80
2023/07/24 02:01:09;;;;;;;;;;;25.10;45.90;;;;;;1554171;75;703;-79
2023/07/24 02:03:11;;;;;;;;;;;25.10;46.00;;;;;;1541419;75;813;-79
2023/07/24 02:05:13;;;;;;;;;;;25.10;45.80;;;;;;1541634;77;715;-79
2023/07/24 02:07:15;;;;;;;;;;;25.10;45.70;;;;;;1537270;75;800;-79
2023/07/24 02:09:20;;;;;;;;;;;25.10;45.60;;;;;;1540989;75;1091;-76
2023/07/24 02:11:22;;;;;;;;;;;25.10;45.50;;;;;;1540495;75;705;-78
2023/07/24 02:13:24;;;;;;;;;;;25.00;45.60;;;;;;1543190;75;724;-79
2023/07/24 02:15:25;;;;;;;;;;;25.00;45.50;;;;;;1557429;75;1921;-76
2023/07/24 02:17:27;;;;;;;;;;;25.00;45.20;;;;;;1542804;75;1185;-77
2023/07/24 02:19:29;;;;;;;;;;;25.00;45.10;;;;;;1535946;75;1270;-79
2023/07/24 02:21:31;;;;;;;;;;;25.00;45.10;;;;;;1537967;75;771;-76
2023/07/24 02:23:33;;;;;;;;;;;25.00;45.10;;;;;;1548601;75;776;-78
2023/07/24 02:25:36;;;;;;;;;;;25.00;45.10;;;;;;1542054;76;809;-78
2023/07/24 02:27:38;;;;;;;;;;;25.00;45.20;;;;;;1542050;75;1143;-77
2023/07/24 02:29:40;;;;;;;;;;;25.00;45.10;;;;;;1538462;75;721;-77
2023/07/24 02:31:42;;;;;;;;;;;25.00;45.10;;;;;;1541296;75;750;-77
2023/07/24 02:33:44;;;;;;;;;;;25.00;45.20;;;;;;1545227;75;735;-78
2023/07/24 02:35:46;;;;;;;;;;;25.20;45.20;;;;;;1537843;75;1930;-78
2023/07/24 02:37:48;;;;;;;;;;;25.10;45.10;;;;;;1545946;75;1124;-78
2023/07/24 02:39:50;;;;;;;;;;;25.10;45.10;;;;;;1552375;75;734;-78
2023/07/24 02:41:51;;;;;;;;;;;25.00;45.20;;;;;;1548325;75;750;-78
2023/07/24 02:43:53;;;;;;;;;;;25.10;45.20;;;;;;1546336;75;687;-78
2023/07/24 02:45:55;;;;;;;;;;;25.10;45.40;;;;;;1543245;75;739;-78
2023/07/24 02:47:57;;;;;;;;;;;25.10;45.60;;;;;;1525770;75;1125;-77
2023/07/24 02:49:59;;;;;;;;;;;25.10;45.90;;;;;;1536699;75;796;-78
2023/07/24 02:52:01;;;;;;;;;;;25.10;46.00;;;;;;1542445;75;711;-79
2023/07/24 02:54:03;;;;;;;;;;;25.00;46.00;;;;;;1545258;75;697;-77
2023/07/24 02:56:04;;;;;;;;;;;25.00;46.00;;;;;;1547885;75;1937;-79
2023/07/24 02:58:06;;;;;;;;;;;25.00;46.10;;;;;;1547431;75;1118;-79
2023/07/24 03:00:09;;;;;;;;;;;25.00;46.30;;;;;;1544328;75;746;-79
2023/07/24 03:02:11;;;;;;;;;;;25.00;46.50;;;;;;1539443;75;898;-79
2023/07/24 03:04:12;;;;;;;;;;;25.00;46.60;;;;;;1548470;74;772;-80
2023/07/24 03:06:14;;;;;;;;;;;25.00;46.80;;;;;;1548073;75;680;-79
2023/07/24 03:08:16;;;;;;;;;;;25.00;46.80;;;;;;1546528;75;1138;-79
2023/07/24 03:10:18;;;;;;;;;;;25.00;47.00;;;;;;1546479;75;786;-78
2023/07/24 03:12:20;;;;;;;;;;;25.00;47.10;;;;;;1536011;75;654;-79
2023/07/24 03:14:22;;;;;;;;;;;24.90;47.20;;;;;;1551047;75;1577;-79
2023/07/24 03:16:24;;;;;;;;;;;25.00;47.20;;;;;;1527295;75;1933;-79
2023/07/24 03:18:25;;;;;;;;;;;24.90;47.10;;;;;;1538535;75;1091;-79
2023/07/24 03:20:27;;;;;;;;;;;24.90;47.10;;;;;;1543120;75;798;-78
2023/07/24 03:22:29;;;;;;;;;;;24.90;47.00;;;;;;1547291;75;760;-80
2023/07/24 03:24:31;;;;;;;;;;;25.00;47.00;;;;;;1551896;75;807;-79
2023/07/24 03:26:33;;;;;;;;;;;24.90;47.00;;;;;;1546757;75;717;-79
2023/07/24 03:28:35;;;;;;;;;;;25.00;47.10;;;;;;1547314;75;1122;-79
2023/07/24 03:30:37;;;;;;;;;;;25.00;47.10;;;;;;1536155;77;721;-79
2023/07/24 03:32:39;;;;;;;;;;;25.00;47.20;;;;;;1552061;75;736;-79
2023/07/24 03:34:40;;;;;;;;;;;25.00;47.20;;;;;;1542945;75;744;-79
2023/07/24 03:36:42;;;;;;;;;;;25.00;47.20;;;;;;1540151;75;1935;-78
2023/07/24 03:38:44;;;;;;;;;;;24.90;47.20;;;;;;1533035;75;1193;-78
2023/07/24 03:40:47;;;;;;;;;;;25.00;47.20;;;;;;1544892;75;599;-78
2023/07/24 03:42:49;;;;;;;;;;;25.00;47.20;;;;;;1540211;75;662;-78
2023/07/24 03:44:51;;;;;;;;;;;25.00;47.20;;;;;;1560623;75;731;-78
2023/07/24 03:46:53;;;;;;;;;;;24.90;47.20;;;;;;1537758;75;705;-77
2023/07/24 03:48:54;;;;;;;;;;;24.90;47.30;;;;;;1551400;75;1143;-79
2023/07/24 03:51:02;;;;;;;;;;;25.00;47.30;;;;;;1526159;75;977;-76
2023/07/24 03:53:04;;;;;;;;;;;25.00;47.50;;;;;;1537728;75;671;-78
2023/07/24 03:55:07;;;;;;;;;;;25.00;47.40;;;;;;1547413;75;1928;-76
2023/07/24 03:57:09;;;;;;;;;;;25.00;47.40;;;;;;1545606;77;733;-78
2023/07/24 03:59:11;;;;;;;;;;;24.90;47.60;;;;;;1546411;75;1171;-77
2023/07/24 04:01:13;;;;;;;;;;;24.90;47.60;;;;;;1542063;75;750;-78
2023/07/24 04:03:15;;;;;;;;;;;24.90;47.90;;;;;;1545630;75;807;-78
2023/07/24 04:05:17;;;;;;;;;;;24.90;47.90;;;;;;1542123;75;734;-77
2023/07/24 04:07:19;;;;;;;;;;;24.90;47.90;;;;;;1537755;75;755;-76
2023/07/24 04:09:21;;;;;;;;;;;24.90;47.90;;;;;;1546529;75;1171;-74
2023/07/24 04:11:23;;;;;;;;;;;25.00;47.70;;;;;;1535387;75;1424;-75
2023/07/24 04:13:25;;;;;;;;;;;25.00;47.90;;;;;;1541170;75;772;-77
2023/07/24 04:15:26;;;;;;;;;;;25.00;47.80;;;;;;1544144;75;1933;-77
2023/07/24 04:17:28;;;;;;;;;;;24.90;47.80;;;;;;1545563;75;1090;-73
2023/07/24 04:19:30;;;;;;;;;;;25.00;47.80;;;;;;1537692;75;663;-77
2023/07/24 04:21:32;;;;;;;;;;;25.00;47.80;;;;;;1531164;75;759;-75
2023/07/24 04:23:34;;;;;;;;;;;25.00;47.80;;;;;;1552312;75;706;-76
2023/07/24 04:25:36;;;;;;;;;;;25.00;47.90;;;;;;1543476;75;781;-76
2023/07/24 04:27:38;;;;;;;;;;;24.90;47.80;;;;;;1545599;75;1177;-77
2023/07/24 04:29:40;;;;;;;;;;;25.00;48.10;;;;;;1548652;75;749;-76
2023/07/24 04:31:41;;;;;;;;;;;24.90;48.20;;;;;;1547534;75;817;-76
2023/07/24 04:33:43;;;;;;;;;;;24.90;48.30;;;;;;1539895;75;747;-76
2023/07/24 04:35:47;;;;;;;;;;;24.90;48.20;;;;;;1551297;75;1932;-78
2023/07/24 04:37:51;;;;;;;;;;;24.90;48.20;;;;;;1545755;75;1238;-78
2023/07/24 04:39:52;;;;;;;;;;;25.00;48.20;;;;;;1545085;75;1484;-78
2023/07/24 04:41:54;;;;;;;;;;;25.00;48.20;;;;;;1549546;75;746;-77
2023/07/24 04:43:56;;;;;;;;;;;25.00;48.30;;;;;;1540487;75;754;-77
2023/07/24 04:45:58;;;;;;;;;;;25.00;48.40;;;;;;1546100;75;638;-77
2023/07/24 04:48:00;;;;;;;;;;;25.00;48.30;;;;;;1548676;75;1142;-78
2023/07/24 04:50:02;;;;;;;;;;;25.00;48.40;;;;;;1548286;75;730;-76
2023/07/24 04:52:04;;;;;;;;;;;25.00;48.40;;;;;;1535140;75;777;-78
2023/07/24 04:54:05;;;;;;;;;;;25.00;48.30;;;;;;1531129;75;810;-77
2023/07/24 04:56:07;;;;;;;;;;;25.00;48.30;;;;;;1536342;75;1932;-77
2023/07/24 04:58:09;;;;;;;;;;;25.00;48.30;;;;;;1540344;75;1145;-77
2023/07/24 05:00:11;;;;;;;;;;;25.00;48.40;;;;;;1548141;75;719;-78
2023/07/24 05:02:13;;;;;;;;;;;25.00;48.40;;;;;;1535447;75;709;-79
2023/07/24 05:04:15;;;;;;;;;;;25.00;48.40;;;;;;1546164;75;791;-82
2023/07/24 05:06:17;;;;;;;;;;;24.90;48.40;;;;;;1546648;77;722;-80
2023/07/24 05:08:19;;;;;;;;;;;25.00;48.40;;;;;;1539149;75;1549;-81
2023/07/24 05:10:21;;;;;;;;;;;25.00;48.30;;;;;;1539072;75;728;-80
2023/07/24 05:12:23;;;;;;;;;;;25.00;48.30;;;;;;1546086;75;829;-80
2023/07/24 05:14:24;;;;;;;;;;;25.00;48.40;;;;;;1546905;75;764;-80
2023/07/24 05:16:26;;;;;;;;;;;25.00;48.10;;;;;;1532334;75;1909;-81
2023/07/24 05:18:28;;;;;;;;;;;25.00;48.10;;;;;;1542403;75;1151;-81
2023/07/24 05:20:30;;;;;;;;;;;25.00;48.10;;;;;;1533600;75;738;-82
2023/07/24 05:22:33;;;;;;;;;;;25.00;48.10;;;;;;1548144;75;746;-81
2023/07/24 05:24:35;;;;;;;;;;;24.90;48.10;;;;;;1545598;75;739;-80
2023/07/24 05:26:37;;;;;;;;;;;25.00;48.10;;;;;;1552307;75;727;-81
2023/07/24 05:28:39;;;;;;;;;;;24.90;48.10;;;;;;1550925;75;1159;-81
2023/07/24 05:30:40;;;;;;;;;;;25.00;48.10;;;;;;1553866;75;734;-81
2023/07/24 05:32:42;;;;;;;;;;;25.00;48.10;;;;;;1541767;75;707;-80
2023/07/24 05:34:44;;;;;;;;;;;25.00;48.10;;;;;;1531878;75;787;-81
2023/07/24 05:36:46;;;;;;;;;;;25.00;48.00;;;;;;1544526;75;1931;-80
2023/07/24 05:38:48;;;;;;;;;;;25.00;48.00;;;;;;1539209;75;1194;-83
2023/07/24 05:40:51;;;;;;;;;;;25.00;47.90;;;;;;1541477;75;619;-82
2023/07/24 05:42:53;;;;;;;;;;;25.00;47.80;;;;;;1538863;77;1538;-82
2023/07/24 05:44:55;;;;;;;;;;;25.00;47.90;;;;;;1525317;76;842;-82
2023/07/24 05:46:57;;;;;;;;;;;25.10;47.80;;;;;;1515263;77;740;-80
2023/07/24 05:49:01;;;;;;;;;;;25.50;47.40;;;;;;1535366;76;1123;-82
2023/07/24 05:51:02;;;;;;;;;;;25.70;47.10;;;;;;1519631;76;1783;-81
2023/07/24 05:53:04;;;;;;;;;;;25.90;47.10;;;;;;1524910;76;728;-82
2023/07/24 05:55:06;;;;;;;;;;;26.00;47.50;;;;;;1526532;76;670;-81
2023/07/24 05:57:08;;;;;;;;;;;25.90;47.30;;;;;;1538292;75;1915;-81
2023/07/24 05:59:10;;;;;;;;;;;25.90;47.60;;;;;;1528034;76;1167;-83
2023/07/24 06:01:12;;;;;;;;;;;25.80;47.80;;;;;;1536877;76;723;-82
2023/07/24 06:03:14;;;;;;;;;;;25.70;48.40;;;;;;1531199;77;1583;-79
2023/07/24 06:05:16;;;;;;;;;;;25.50;48.80;;;;;;1539386;75;801;-82
2023/07/24 06:07:18;;;;;;;;;;;25.50;49.30;;;;;;1528773;76;813;-80
2023/07/24 06:09:20;;;;;;;;;;;25.40;49.20;;;;;;1534043;76;1160;-79
2023/07/24 06:11:22;;;;;;;;;;;25.40;49.50;;;;;;1525581;76;886;-82
2023/07/24 06:13:24;;;;;;;;;;;25.40;49.50;;;;;;1530859;76;736;-82
2023/07/24 06:15:26;;;;;;;;;;;25.40;49.60;;;;;;1537982;76;698;-82
2023/07/24 06:17:28;;;;;;;;;;;25.40;49.40;;;;;;1528338;76;1929;-81
2023/07/24 06:19:30;;;;;;;;;;;25.40;49.30;;;;;;1528117;76;619;-81
2023/07/24 06:21:32;;;;;;;;;;;25.50;49.60;;;;;;1521972;76;749;-82
2023/07/24 06:23:34;;;;;;;;;;;25.50;49.30;;;;;;1537230;77;754;-82
2023/07/24 06:25:35;;;;;;;;;;;25.50;49.40;;;;;;1536539;76;724;-82
2023/07/24 06:27:37;;;;;;;;;;;25.40;49.60;;;;;;1534189;76;1104;-82
2023/07/24 06:29:39;;;;;;;;;;;25.30;49.70;;;;;;1533762;76;732;-82
2023/07/24 06:31:41;;;;;;;;;;;25.30;49.70;;;;;;1529490;76;765;-81
2023/07/24 06:33:43;;;;;;;;;;;25.40;49.80;;;;;;1531909;76;728;-82
2023/07/24 06:35:45;;;;;;;;;;;25.40;49.90;;;;;;1537740;76;749;-81
2023/07/24 06:37:47;;;;;;;;;;;25.40;49.70;;;;;;1529292;76;1929;-81
2023/07/24 06:39:49;;;;;;;;;;;25.40;49.90;;;;;;1521924;75;756;-82
2023/07/24 06:41:52;;;;;;;;;;;25.30;49.80;;;;;;1538059;75;613;-82
2023/07/24 06:43:54;;;;;;;;;;;25.30;49.80;;;;;;1520876;76;929;-81
2023/07/24 06:45:56;;;;;;;;;;;25.30;50.00;;;;;;1527786;75;766;-80
2023/07/24 06:47:58;;;;;;;;;;;25.20;50.20;;;;;;1537637;77;1170;-81
2023/07/24 06:50:00;;;;;;;;;;;25.20;50.40;;;;;;1528536;76;709;-82
2023/07/24 06:52:02;;;;;;;;;;;25.20;50.40;;;;;;1536828;75;771;-81
2023/07/24 06:54:04;;;;;;;;;;;25.20;50.50;;;;;;1535591;76;742;-82
2023/07/24 06:56:06;;;;;;;;;;;25.20;50.40;;;;;;1529136;76;1946;-82
2023/07/24 06:58:07;;;;;;;;;;;25.10;50.50;;;;;;1524827;76;1160;-82
2023/07/24 07:00:11;;;;;;;;;;;25.10;50.30;;;;;;1533973;77;1591;-80
2023/07/24 07:02:13;;;;;;;;;;;25.10;50.10;;;;;;1536044;75;680;-82
2023/07/24 07:04:15;;;;;;;;;;;25.10;50.30;;;;;;1532235;76;720;-80
2023/07/24 07:06:17;;;;;;;;;;;25.00;50.30;;;;;;1533266;75;1165;-82
2023/07/24 07:08:19;;;;;;;;;;;25.00;50.40;;;;;;1527675;76;1142;-82
2023/07/24 07:10:20;;;;;;;;;;;24.90;50.90;;;;;;1541467;76;668;-82
2023/07/24 07:12:22;;;;;;;;;;;24.90;50.90;;;;;;1530582;76;702;-80
2023/07/24 07:14:24;;;;;;;;;;;24.80;51.00;;;;;;1544227;76;715;-80
2023/07/24 07:16:26;;;;;;;;;;;24.80;51.00;;;;;;1537936;76;1900;-81
2023/07/24 07:18:28;;;;;;;;;;;24.80;51.00;;;;;;1547421;75;1140;-81
2023/07/24 07:20:30;;;;;;;;;;;24.80;51.00;;;;;;1552718;75;734;-83
2023/07/24 07:22:32;;;;;;;;;;;24.80;51.00;;;;;;1554362;75;624;-82
2023/07/24 07:24:34;;;;;;;;;;;24.80;51.00;;;;;;1541859;75;631;-82
2023/07/24 07:26:36;;;;;;;;;;;24.70;50.90;;;;;;1546076;75;846;-82
2023/07/24 07:28:38;;;;;;;;;;;24.80;51.00;;;;;;1544764;75;1166;-83
2023/07/24 07:30:40;;;;;;;;;;;24.80;50.90;;;;;;1541546;75;969;-81
2023/07/24 07:32:42;;;;;;;;;;;24.80;51.10;;;;;;1538670;75;765;-80
2023/07/24 07:34:44;;;;;;;;;;;24.70;51.30;;;;;;1541299;75;728;-81
2023/07/24 07:36:46;;;;;;;;;;;24.70;51.30;;;;;;1536882;75;1931;-82
2023/07/24 07:38:48;;;;;;;;;;;24.70;51.30;;;;;;1550790;75;1115;-81
2023/07/24 07:40:49;;;;;;;;;;;24.60;51.30;;;;;;1532323;75;800;-81
2023/07/24 07:42:51;;;;;;;;;;;24.60;51.40;;;;;;1534756;77;710;-82
2023/07/24 07:44:53;;;;;;;;;;;24.60;51.30;;;;;;1536258;75;734;-79
2023/07/24 07:46:55;;;;;;;;;;;24.70;51.30;;;;;;1543881;75;829;-80
2023/07/24 07:48:57;;;;;;;;;;;24.70;51.30;;;;;;1541688;75;1200;-80
2023/07/24 07:50:59;;;;;;;;;;;24.70;51.30;;;;;;1539641;75;745;-82
2023/07/24 07:53:01;;;;;;;;;;;24.70;51.30;;;;;;1539409;75;904;-82
2023/07/24 07:55:02;;;;;;;;;;;24.80;51.10;;;;;;1544619;75;717;-82
2023/07/24 07:57:04;;;;;;;;;;;24.80;51.10;;;;;;1545321;75;1913;-82
2023/07/24 07:59:06;;;;;;;;;;;24.80;51.00;;;;;;1540312;75;1126;-80
2023/07/24 08:01:08;;;;;;;;;;;24.80;51.10;;;;;;1533103;75;749;-82
2023/07/24 08:03:10;;;;;;;;;;;24.80;51.10;;;;;;1544410;77;737;-82
2023/07/24 08:05:12;;;;;;;;;;;24.70;51.30;;;;;;1543832;75;735;-80
2023/07/24 08:07:14;;;;;;;;;;;24.80;51.30;;;;;;1555254;75;809;-80
2023/07/24 08:09:17;;;;;;;;;;;24.80;51.30;;;;;;1548131;75;1122;-82
2023/07/24 08:11:19;;;;;;;;;;;24.70;51.30;;;;;;1539387;75;884;-82
2023/07/24 08:13:21;;;;;;;;;;;24.80;51.30;;;;;;1539719;77;730;-82
2023/07/24 08:15:23;;;;;;;;;;;24.80;51.30;;;;;;1542442;75;692;-79
2023/07/24 08:17:24;;;;;;;;;;;24.70;51.40;;;;;;1530124;75;1956;-78
2023/07/24 08:19:29;;;;;;;;;;;24.80;51.30;;;;;;1546318;75;589;-82
2023/07/24 08:21:31;;;;;;;;;;;24.80;51.80;;;;;;1540572;75;865;-81
2023/07/24 08:23:33;;;;;;;;;;;24.70;52.00;;;;;;1538616;75;791;-82
2023/07/24 08:25:35;;;;;;;;;;;24.60;52.30;;;;;;1545406;75;703;-82
2023/07/24 08:27:37;;;;;;;;;;;24.50;52.70;;;;;;1547366;75;1138;-81
2023/07/24 08:29:39;;;;;;;;;;;24.50;53.00;;;;;;1543463;75;760;-80
2023/07/24 08:31:41;;;;;;;;;;;24.50;52.80;;;;;;1547357;75;616;-81
2023/07/24 08:33:42;;;;;;;;;;;24.50;52.70;;;;;;1542541;75;815;-79
2023/07/24 08:35:44;;;;;;;;;;;24.50;53.10;;;;;;1545562;75;783;-82
2023/07/24 08:37:46;;;;;;;;;;;24.50;53.00;;;;;;1545848;75;1947;-81
2023/07/24 08:39:48;;;;;;;;;;;24.50;53.40;;;;;;1539684;75;617;-82
2023/07/24 08:41:50;;;;;;;;;;;24.50;53.40;;;;;;1533248;77;778;-82
2023/07/24 08:43:53;;;;;;;;;;;24.50;53.30;;;;;;1546098;75;689;-80
2023/07/24 08:45:55;;;;;;;;;;;24.50;53.60;;;;;;1514738;76;771;-82
2023/07/24 08:47:57;;;;;;;;;;;24.50;53.60;;;;;;1517439;78;1184;-80
2023/07/24 08:49:59;;;;;;;;;;;24.50;53.60;;;;;;1548399;75;734;-82
2023/07/24 08:52:01;;;;;;;;;;;24.40;53.60;;;;;;1550136;75;1502;-82
2023/07/24 08:54:03;;;;;;;;;;;24.40;53.60;;;;;;1546896;75;778;-82
2023/07/24 08:56:09;;;;;;;;;;;24.50;53.90;;;;;;1540948;75;769;-82
2023/07/24 08:58:11;;;;;;;;;;;24.40;53.90;;;;;;1548635;75;1933;-82
2023/07/24 09:00:13;;;;;;;;;;;24.40;53.80;;;;;;1554729;75;770;-82
2023/07/24 09:02:15;;;;;;;;;;;24.40;53.90;;;;;;1547405;75;715;-81
2023/07/24 09:04:17;;;;;;;;;;;24.40;53.80;;;;;;1553559;75;723;-81
2023/07/24 09:06:19;;;;;;;;;;;24.40;53.70;;;;;;1545988;75;826;-82
2023/07/24 09:08:33;;;;;;;;;;;24.50;53.70;;;;;;1546336;75;1186;-82
2023/07/24 09:10:35;;;;;;;;;;;24.40;53.50;;;;;;1536001;75;755;-82
2023/07/24 09:12:38;;;;;;;;;;;24.40;53.40;;;;;;1522642;77;788;-82
2023/07/24 09:14:40;;;;;;;;;;;24.50;53.60;;;;;;1521183;77;722;-82
2023/07/24 09:16:42;;;;;;;;;;;24.50;53.60;;;;;;1553910;75;738;-82
2023/07/24 09:18:44;;;;;;;;;;;24.40;53.40;;;;;;1539534;75;1929;-79
2023/07/24 09:20:47;;;;;;;;;;;24.50;53.60;;;;;;1541070;76;717;-79
2023/07/24 09:22:49;;;;;;;;;;;24.50;53.80;;;;;;1524659;78;694;-80
2023/07/24 09:24:52;;;;;;;;;;;24.50;53.60;;;;;;1526616;76;712;-80
2023/07/24 09:26:53;;;;;;;;;;;24.50;53.60;;;;;;1531977;76;604;-80
2023/07/24 09:28:55;;;;;;;;;;;24.50;53.30;;;;;;1524065;76;1122;-80
